メインページ
METAR-TAF:

METAR-TAF

空港 :

ラナイ・シティ, ハワイ州, アメリカ合衆国

緯度: 20-47N, 経度: 156-57W, 海抜: 399m

METAR: 見つかりません

時間: 13:47 (23:47 UTC)

予報

当レポートは2時間38分前の21:09(UTC)に作成
予報は18日の 21時(UTC)から 19日の 18時(UTC)まで有効
北東の風 19kt、最大25ktの突風を伴う
視程: 10km
高度3500ftの雲は散在している
19日の 0500時(UTC)から
北東の風 12kt
視程: 10km
高度3500ftの雲はほとんどない
19日の 0900時(UTC)から
北東の風 9kt
視程: 10km
晴天

TAF: PHNY 182109Z 1821/1918 04019G25KT P6SM SCT035 FM190500 04012KT P6SM FEW035 FM190900 05009KT P6SM SKC

4,000以上の空港の気象観測と天気予報(METAR報とTAF報)

利用可能な観測所は地図上に黄色い丸と赤い丸で示す。

丸の上にカーソルを重ねると観測所名を参照できる。

次にクリックすると気象観測と天気予報を参照できる。

マップの切り替え:黒色「×」印の緑ボタンをクリックして拡大、「-」印の緑ボタンをクリックして縮小、緑色の三角印をクリックして隣りの地図に切り替え


METAR-TAF: